Padre Aldamiz Airport
SPTU : now visible

Airfield :











YOU CAN JOIN US ON...

 
LOGIN :

Register | Disclaimer

   EN    FR    IT 

 









Legend :    VFR   Marginal VFR   IFR   Intensive IFR   Very Intensive IFR
Visi :
Ceiling :
>= 8 km
>= 3000ft
5 to 8 km
1000 to 3000 ft
1500m to 5 km
500 to 1000 ft
800 to 1500m
200 to 500 ft
< 800m
< 200 ft
Symbols :   Thunderstorms  Fog  Heavy snow  Heavy precipitations  Wind > 20 kt






- Airport Elevation : 659 ft
- IATA code : PEM


SPTU - Padre Aldamiz

CURRENT METAR :
  • 011512Z 21003KT 160V270 5000 2000S TSRA BKN010 SCT040CB 23/23 Q1012 RMK CB W

EXPIRED METARs :
  • 011500Z 23009KT 1000 TSRA OVC010 SCT040CB 23/23 Q1012 RMK CB W BIRD HAZARD RWY 01/19 PP230
  • 011412Z 18006KT 140V200 0500 +RA OVC010 24/24 Q1012 RMK CB SW
  • 011407Z 17005KT 140V200 1500 RA OVC010 24/24 Q1012 RMK CB SW

TAF SPTU
Valid from the 01 at 12:00 until the 02 at 12:00 UTC


011310Z 0112/0212 36003KT 8000 FEW012 SCT030 BKN100 TX31/0119Z TN22/0211Z
TEMPO 0113/0115 5000 TSRA FEW020 SCT030CB BKN100
TEMPO 0117/0119 FEW020 SCT025TCU
TEMPO 0205/0209 RA
SPIM FIR / South America



MET'MAP, your aeronautical weather chart ! - Copyright ORBIFLY December 2007 - Disclaimer

ORBIFLY MET'MAP TEAM :

Programming & Development : Alexandra Zaïnal
Concept & original design : Baudouin d'Aumeries
Assistance for programming : Marc-Olivier Méhu
Technical & hardware support : Manuel Goepfert

Contact : metmap@orbifly.com




SOURCES & CREDITS :

   NOAA       Earth
Advisory